Time;durP1;ratioP1;P1;durP2;ratioP2;P2;SDS_P1;SDS_P2;PMS_P1;PMS_P2;Temp;Humidity;BMP_temperature;BMP_pressure;BME280_temperature;BME280_humidity;BME280_pressure;Samples;Min_cycle;Max_cycle;Signal;HPM_P1;HPM_P2
2023/05/02 00:00:17;;;;;;;;;11.33;10.33;;;;;14.57;61.49;101382.06;4957857;28;45432;-58
2023/05/02 00:02:43;;;;;;;;;6.00;6.00;;;;;14.59;62.51;101380.22;4958296;28;45629;-57
2023/05/02 00:05:08;;;;;;;;;10.00;10.00;;;;;14.58;62.08;101374.03;4958144;28;45828;-57
2023/05/02 00:07:34;;;;;;;;;10.00;9.33;;;;;14.58;62.37;101376.69;4957831;28;45514;-56
2023/05/02 00:10:01;;;;;;;;;9.33;9.33;;;;;14.57;61.60;101379.41;4957995;28;45391;-57
2023/05/02 00:12:27;;;;;;;;;10.67;9.33;;;;;14.53;62.10;101373.38;4958093;28;45491;-58
2023/05/02 00:14:52;;;;;;;;;9.67;9.00;;;;;14.57;62.06;101380.25;4957866;28;45490;-57
2023/05/02 00:17:18;;;;;;;;;12.00;9.67;;;;;14.55;62.39;101376.81;4957402;28;45428;-57
2023/05/02 00:19:43;;;;;;;;;9.00;9.00;;;;;14.58;61.92;101378.47;4957989;28;45490;-57
2023/05/02 00:22:09;;;;;;;;;10.00;10.00;;;;;14.51;61.96;101367.25;4957845;28;45450;-57
2023/05/02 00:24:34;;;;;;;;;9.33;9.33;;;;;14.56;62.58;101375.03;4951679;28;47868;-58
2023/05/02 00:27:00;;;;;;;;;10.00;10.00;;;;;14.56;62.44;101375.03;4956668;28;45639;-58
2023/05/02 00:29:25;;;;;;;;;8.00;8.00;;;;;14.54;61.90;101372.44;4957822;28;45462;-57
2023/05/02 00:31:50;;;;;;;;;10.67;10.33;;;;;14.53;62.94;101365.44;4957675;28;46244;-57
2023/05/02 00:34:15;;;;;;;;;9.00;9.00;;;;;14.51;62.40;101371.69;4957114;28;49393;-57
2023/05/02 00:36:41;;;;;;;;;10.33;9.33;;;;;14.50;62.58;101370.78;4957496;28;45424;-56
2023/05/02 00:39:06;;;;;;;;;15.00;12.00;;;;;14.48;62.25;101370.03;4957196;28;48515;-57
2023/05/02 00:41:31;;;;;;;;;12.00;9.00;;;;;14.44;62.70;101360.47;4957536;28;45544;-57
2023/05/02 00:43:57;;;;;;;;;9.67;9.67;;;;;14.47;62.33;101368.28;4957343;28;46073;-57
2023/05/02 00:46:22;;;;;;;;;10.67;9.67;;;;;14.47;62.51;101368.28;4956921;28;54595;-57
2023/05/02 00:48:48;;;;;;;;;9.33;9.33;;;;;14.48;62.73;101379.72;4956140;28;45434;-57
2023/05/02 00:51:13;;;;;;;;;12.00;11.67;;;;;14.46;62.58;101371.84;4957744;28;45420;-56
2023/05/02 00:53:40;;;;;;;;;10.00;10.00;;;;;14.48;62.60;101377.97;4957238;28;45493;-58
2023/05/02 00:56:06;;;;;;;;;12.00;12.00;;;;;14.48;62.67;101379.72;4955698;28;45372;-57
2023/05/02 00:58:33;;;;;;;;;12.33;12.33;;;;;14.45;62.46;101380.69;4957023;28;45516;-58
2023/05/02 01:01:29;;;;;;;;;13.00;12.00;;;;;14.42;63.24;101378.19;4957213;28;45543;-59
2023/05/02 01:04:37;;;;;;;;;10.00;9.33;;;;;14.39;62.76;101374.78;4957057;28;45947;-57
2023/05/02 01:07:15;;;;;;;;;12.00;11.00;;;;;14.42;63.33;101382.63;4956901;28;45454;-56
2023/05/02 01:09:49;;;;;;;;;11.67;11.33;;;;;14.42;63.35;101377.31;4956932;28;45387;-57
2023/05/02 01:12:31;;;;;;;;;14.67;13.33;;;;;14.43;63.17;101379.91;4943566;28;45478;-57
2023/05/02 01:14:59;;;;;;;;;15.33;13.67;;;;;14.36;62.88;101367.84;4956754;28;46354;-58
2023/05/02 01:17:29;;;;;;;;;15.00;13.33;;;;;14.40;63.29;101373.84;4956796;28;45463;-57
2023/05/02 01:19:58;;;;;;;;;16.33;15.00;;;;;14.35;63.97;101371.41;4957063;28;45522;-58
2023/05/02 01:22:27;;;;;;;;;12.00;10.50;;;;;14.33;63.23;101383.84;4956893;28;45479;-57
2023/05/02 01:25:14;;;;;;;;;12.33;12.33;;;;;14.30;63.93;101391.91;4956817;28;46136;-58
2023/05/02 01:27:55;;;;;;;;;17.67;16.33;;;;;14.28;63.84;101386.66;4944458;28;45420;-56
2023/05/02 01:30:23;;;;;;;;;15.00;13.00;;;;;14.27;63.34;101384.94;4956828;28;45375;-57
2023/05/02 01:32:52;;;;;;;;;13.33;12.00;;;;;14.28;64.03;101386.66;4956910;28;45541;-58
2023/05/02 01:35:20;;;;;;;;;13.00;13.00;;;;;14.29;63.92;101377.81;4956675;28;46393;-58
2023/05/02 01:37:47;;;;;;;;;14.67;13.33;;;;;14.30;63.94;101376.88;4956698;28;45454;-57
2023/05/02 01:40:16;;;;;;;;;13.00;12.33;;;;;14.28;63.70;101383.16;4956727;28;45595;-56
2023/05/02 01:42:44;;;;;;;;;13.67;11.67;;;;;14.24;64.02;101376.22;4956455;28;45415;-58
2023/05/02 01:45:11;;;;;;;;;13.33;12.00;;;;;14.26;63.99;101380.53;4956438;28;45379;-55
2023/05/02 01:47:39;;;;;;;;;15.33;14.33;;;;;14.27;64.11;101392.03;4956465;28;45402;-58
2023/05/02 01:50:08;;;;;;;;;17.33;14.33;;;;;14.26;64.70;101392.91;4957283;28;45407;-56
2023/05/02 01:52:34;;;;;;;;;17.33;16.33;;;;;14.21;64.49;101385.19;4956355;28;45546;-57
2023/05/02 01:55:00;;;;;;;;;11.67;11.67;;;;;14.18;64.42;101389.69;4956292;28;46246;-58
2023/05/02 01:57:26;;;;;;;;;14.33;14.33;;;;;14.11;64.80;101379.34;4955632;28;45546;-58
2023/05/02 01:59:55;;;;;;;;;19.33;16.67;;;;;14.15;64.56;101383.59;4956114;28;45554;-56
2023/05/02 02:02:23;;;;;;;;;18.00;14.00;;;;;14.16;64.79;101381.84;4956533;28;45466;-58
2023/05/02 02:04:50;;;;;;;;;17.00;16.00;;;;;14.20;64.55;101372.00;4956093;28;45529;-57
2023/05/02 02:07:16;;;;;;;;;13.00;12.00;;;;;14.19;64.21;101376.44;4956313;28;45490;-57
2023/05/02 02:09:41;;;;;;;;;12.67;11.67;;;;;14.14;64.72;101366.00;4956447;28;45415;-57
2023/05/02 02:12:21;;;;;;;;;15.67;14.67;;;;;14.21;64.32;101377.25;4956226;28;45600;-58
2023/05/02 02:14:54;;;;;;;;;17.00;17.00;;;;;14.21;64.72;101377.25;4955161;28;46908;-56
2023/05/02 02:17:26;;;;;;;;;17.00;15.00;;;;;14.19;64.45;101370.28;4956042;28;45553;-57
2023/05/02 02:19:55;;;;;;;;;14.67;14.67;;;;;14.22;64.43;101378.97;4956353;28;45443;-57
2023/05/02 02:22:25;;;;;;;;;12.33;12.33;;;;;14.22;64.35;101388.69;4956095;28;45746;-57
2023/05/02 02:24:52;;;;;;;;;12.00;12.00;;;;;14.17;64.85;101382.69;4956080;28;45458;-57
2023/05/02 02:27:18;;;;;;;;;15.67;15.33;;;;;14.18;64.33;101390.56;4955813;28;45415;-57
2023/05/02 02:29:43;;;;;;;;;14.33;12.67;;;;;14.17;64.47;101394.13;4956146;28;45514;-57
2023/05/02 02:32:09;;;;;;;;;17.33;16.33;;;;;14.15;64.30;101399.47;4948691;28;45578;-58
2023/05/02 02:34:34;;;;;;;;;14.00;14.00;;;;;14.12;64.65;101394.31;4955587;28;47861;-58
2023/05/02 02:37:07;;;;;;;;;16.33;16.00;;;;;14.12;64.57;101394.31;4954563;28;45316;-56
2023/05/02 02:39:59;;;;;;;;;14.67;14.67;;;;;14.12;65.01;101401.38;4956062;28;45375;-56
2023/05/02 02:42:30;;;;;;;;;18.33;17.33;;;;;14.09;64.88;101397.06;4955845;28;45383;-57
2023/05/02 02:45:30;;;;;;;;;17.67;16.67;;;;;14.03;64.89;101412.31;4955591;28;46382;-55
2023/05/02 02:48:18;;;;;;;;;17.00;14.67;;;;;14.03;65.17;101413.16;4955652;28;45493;-55
2023/05/02 02:51:08;;;;;;;;;17.67;16.00;;;;;14.02;65.30;101414.06;4956368;28;45533;-56
2023/05/02 02:53:48;;;;;;;;;17.67;16.00;;;;;13.98;65.11;101401.91;4955759;28;45503;-58
2023/05/02 02:56:18;;;;;;;;;15.33;15.00;;;;;14.01;65.07;101412.34;4954697;28;45509;-57
2023/05/02 02:58:56;;;;;;;;;21.33;18.33;;;;;14.01;65.20;101415.00;4942449;28;45468;-58
2023/05/02 03:01:24;;;;;;;;;21.67;17.67;;;;;14.01;65.27;101403.56;4955615;28;45416;-57
2023/05/02 03:03:51;;;;;;;;;20.33;16.00;;;;;13.98;65.04;101409.81;4954652;28;45428;-57
2023/05/02 03:06:17;;;;;;;;;19.33;17.33;;;;;13.96;65.21;101406.38;4954938;28;45464;-58
2023/05/02 03:08:44;;;;;;;;;20.67;15.67;;;;;14.01;65.02;101404.41;4955879;28;45492;-57
2023/05/02 03:11:09;;;;;;;;;16.67;16.67;;;;;14.00;65.10;101410.66;4959091;28;45452;-57
2023/05/02 03:13:35;;;;;;;;;17.67;16.33;;;;;13.98;64.90;101408.97;4958902;28;45593;-56
2023/05/02 03:16:35;;;;;;;;;18.00;18.00;;;;;13.97;65.42;101409.88;4958883;28;45320;-55
2023/05/02 03:19:02;;;;;;;;;16.00;15.67;;;;;13.96;64.97;101400.22;4958569;28;45503;-57
2023/05/02 03:21:30;;;;;;;;;19.00;16.33;;;;;13.89;65.27;101396.94;4958795;28;45407;-58
2023/05/02 03:23:57;;;;;;;;;15.00;15.00;;;;;13.92;65.28;101413.56;4958506;28;45502;-57
2023/05/02 03:26:22;;;;;;;;;20.33;18.00;;;;;13.90;65.64;101406.59;4958459;28;46250;-55
2023/05/02 03:28:49;;;;;;;;;16.33;16.33;;;;;13.88;65.47;101413.72;4958018;28;54332;-57
2023/05/02 03:31:14;;;;;;;;;17.33;16.33;;;;;13.92;64.88;101412.69;4952058;28;45490;-57
2023/05/02 03:33:40;;;;;;;;;18.67;18.67;;;;;13.92;65.23;101416.22;4952346;28;45377;-56
2023/05/02 03:36:06;;;;;;;;;21.33;18.67;;;;;13.88;64.90;101417.22;4958458;28;45499;-58
2023/05/02 03:38:31;;;;;;;;;16.67;15.33;;;;;13.89;65.59;101423.41;4958459;28;45410;-58
2023/05/02 03:40:57;;;;;;;;;24.33;19.67;;;;;13.88;65.14;101417.22;4958353;28;45535;-58
2023/05/02 03:43:22;;;;;;;;;20.33;17.33;;;;;13.90;65.37;101425.13;4958420;28;45684;-57
2023/05/02 03:45:47;;;;;;;;;19.67;19.67;;;;;13.88;65.40;101425.16;4958476;28;45422;-57
2023/05/02 03:48:13;;;;;;;;;16.33;14.33;;;;;13.85;65.69;101422.63;4958384;28;45473;-57
2023/05/02 03:50:38;;;;;;;;;21.00;18.67;;;;;13.86;65.43;101421.72;4959035;28;45439;-56
2023/05/02 03:53:03;;;;;;;;;19.00;19.00;;;;;13.88;65.53;101427.78;4958236;28;45557;-58
2023/05/02 03:55:29;;;;;;;;;23.00;18.50;;;;;13.81;65.73;101418.38;4958145;28;45383;-58
2023/05/02 03:57:54;;;;;;;;;18.33;17.33;;;;;13.82;65.74;101421.88;4958148;28;45377;-58
2023/05/02 04:00:20;;;;;;;;;21.67;19.33;;;;;13.83;64.97;101420.94;4956969;28;45534;-57
2023/05/02 04:02:45;;;;;;;;;20.00;17.00;;;;;13.85;64.97;101419.97;4958353;28;45521;-56
2023/05/02 04:05:10;;;;;;;;;19.00;19.00;;;;;13.85;65.78;101413.84;4957315;28;63216;-58
2023/05/02 04:07:35;;;;;;;;;21.33;19.67;;;;;13.84;66.00;101422.69;4958105;28;45388;-58
2023/05/02 04:10:01;;;;;;;;;23.67;21.00;;;;;13.81;65.33;101418.38;4957709;28;49310;-56
2023/05/02 04:12:26;;;;;;;;;25.33;20.67;;;;;13.82;65.85;101420.09;4958194;28;45332;-58
2023/05/02 04:14:51;;;;;;;;;18.67;18.67;;;;;13.75;65.54;101404.50;4957483;28;55984;-57
2023/05/02 04:17:17;;;;;;;;;25.00;19.00;;;;;13.76;65.70;101409.75;4957760;28;45524;-57
2023/05/02 04:19:42;;;;;;;;;23.67;22.00;;;;;13.79;65.70;101416.72;4957768;28;45466;-57
2023/05/02 04:22:07;;;;;;;;;21.00;18.33;;;;;13.76;65.95;101430.91;4957878;28;45510;-57
2023/05/02 04:24:33;;;;;;;;;24.00;22.33;;;;;13.76;66.03;101430.03;4957870;28;46097;-56
2023/05/02 04:26:58;;;;;;;;;25.67;22.00;;;;;13.76;66.01;101433.53;4957737;28;45416;-56
2023/05/02 04:29:23;;;;;;;;;19.00;18.33;;;;;13.74;65.74;101434.50;4958025;28;45396;-58
2023/05/02 04:31:50;;;;;;;;;22.00;19.00;;;;;13.70;66.09;101439.91;4957651;28;45445;-57
2023/05/02 04:34:15;;;;;;;;;21.67;21.33;;;;;13.66;65.81;101434.78;4957465;28;45613;-56
2023/05/02 04:36:41;;;;;;;;;27.33;25.33;;;;;13.70;65.84;101445.19;4957685;28;45498;-57
2023/05/02 04:39:06;;;;;;;;;28.00;23.00;;;;;13.69;65.74;101450.53;4957564;28;45614;-57
2023/05/02 04:41:32;;;;;;;;;22.33;21.67;;;;;13.68;65.91;101452.31;4957615;28;45510;-56
2023/05/02 04:43:58;;;;;;;;;24.67;19.67;;;;;13.65;66.00;101455.06;4957683;28;45462;-58
2023/05/02 04:46:23;;;;;;;;;24.00;21.00;;;;;13.65;66.21;101470.91;4957285;28;45550;-57
2023/05/02 04:48:49;;;;;;;;;17.33;16.33;;;;;13.61;66.23;101469.28;4957536;28;45352;-56
2023/05/02 04:51:14;;;;;;;;;22.00;21.67;;;;;13.58;66.44;101469.38;4957782;28;45550;-57
2023/05/02 04:53:39;;;;;;;;;21.33;21.33;;;;;13.55;66.57;101471.28;4957296;28;46356;-57
2023/05/02 04:56:05;;;;;;;;;25.67;24.33;;;;;13.53;66.94;101471.31;4956768;28;52405;-57
2023/05/02 04:58:31;;;;;;;;;21.00;18.33;;;;;13.54;66.63;101472.19;4957235;28;45824;-56
2023/05/02 05:00:56;;;;;;;;;30.00;24.00;;;;;13.57;66.58;101475.59;4957167;28;45428;-56
2023/05/02 05:03:22;;;;;;;;;27.67;24.33;;;;;13.58;66.23;101472.03;4956080;28;49481;-57
2023/05/02 05:05:47;;;;;;;;;25.00;23.67;;;;;13.57;66.62;101472.09;4955939;28;45371;-56
2023/05/02 05:08:12;;;;;;;;;23.33;22.00;;;;;13.57;66.67;101474.75;4954525;28;45475;-57
2023/05/02 05:10:39;;;;;;;;;29.67;24.33;;;;;13.59;66.73;101484.31;4948648;28;45523;-56
2023/05/02 05:13:04;;;;;;;;;22.33;22.00;;;;;13.61;66.36;101484.28;4938637;28;46198;-57
2023/05/02 05:15:30;;;;;;;;;26.33;25.00;;;;;13.60;66.45;101487.84;4938309;28;45583;-58
2023/05/02 05:17:55;;;;;;;;;25.67;24.33;;;;;13.61;66.53;101489.56;4956102;28;49250;-55
2023/05/02 05:20:21;;;;;;;;;22.67;21.67;;;;;13.60;66.67;101493.13;4956841;28;45485;-55
2023/05/02 05:22:46;;;;;;;;;24.67;21.33;;;;;13.60;66.53;101504.56;4956751;28;45955;-55
2023/05/02 05:25:11;;;;;;;;;26.33;23.67;;;;;13.57;66.67;101503.81;4956510;28;45538;-57
2023/05/02 05:27:37;;;;;;;;;24.33;22.33;;;;;13.54;66.42;101502.16;4956626;28;47124;-57
2023/05/02 05:30:03;;;;;;;;;27.00;25.00;;;;;13.55;66.13;101503.84;4956553;28;45443;-56
2023/05/02 05:32:29;;;;;;;;;27.00;22.33;;;;;13.55;66.87;101503.84;4955581;28;45453;-56
2023/05/02 05:34:54;;;;;;;;;19.33;19.00;;;;;13.55;66.93;101513.56;4956255;28;45532;-56
2023/05/02 05:37:20;;;;;;;;;24.33;22.33;;;;;13.56;66.59;101523.22;4956695;28;45375;-56
2023/05/02 05:39:46;;;;;;;;;19.33;18.00;;;;;13.58;66.21;101521.41;4953066;28;45435;-58
2023/05/02 05:42:11;;;;;;;;;28.00;26.00;;;;;13.61;66.49;101529.22;4956171;28;46106;-57
2023/05/02 05:44:37;;;;;;;;;26.00;21.33;;;;;13.61;66.61;101527.44;4956197;28;45547;-57
2023/05/02 05:47:03;;;;;;;;;29.00;26.00;;;;;13.61;66.52;101529.22;4956679;28;45375;-57
2023/05/02 05:49:29;;;;;;;;;23.00;22.00;;;;;13.61;66.03;101531.88;4956417;28;45420;-55
2023/05/02 05:51:54;;;;;;;;;26.67;23.67;;;;;13.65;66.26;101534.38;4956919;28;46172;-57
2023/05/02 05:54:19;;;;;;;;;24.33;24.00;;;;;13.67;66.14;101531.66;4955064;28;45476;-57
2023/05/02 05:56:45;;;;;;;;;28.33;25.67;;;;;13.67;66.75;101542.22;4955317;28;45797;-56
2023/05/02 05:59:10;;;;;;;;;26.67;25.33;;;;;13.67;66.47;101548.41;4951359;28;45638;-57
2023/05/02 06:01:36;;;;;;;;;28.67;26.33;;;;;13.64;66.57;101534.41;4954850;28;45537;-56
2023/05/02 06:04:03;;;;;;;;;23.33;22.00;;;;;13.68;66.47;101551.91;4954011;28;45435;-56
2023/05/02 06:06:30;;;;;;;;;29.33;26.00;;;;;13.65;66.46;101550.22;4945319;28;45553;-56
2023/05/02 06:08:55;;;;;;;;;28.67;26.33;;;;;13.66;66.60;101553.72;4956145;28;45522;-56
2023/05/02 06:11:23;;;;;;;;;25.33;25.00;;;;;13.66;66.44;101559.00;4954626;28;46409;-56
2023/05/02 06:13:50;;;;;;;;;32.67;27.67;;;;;13.68;66.33;101565.97;4954069;28;45524;-58
2023/05/02 06:16:15;;;;;;;;;23.67;22.67;;;;;13.68;66.60;101568.63;4956017;28;45556;-55
2023/05/02 06:18:40;;;;;;;;;27.67;26.00;;;;;13.67;66.45;101566.03;4956276;28;45757;-57
2023/05/02 06:21:06;;;;;;;;;26.67;24.33;;;;;13.67;66.51;101564.25;4954663;28;46463;-55
2023/05/02 06:23:31;;;;;;;;;25.33;24.33;;;;;13.71;66.44;101570.31;4956051;28;45542;-57
2023/05/02 06:26:01;;;;;;;;;35.00;29.33;;;;;13.67;66.46;101564.25;4955044;28;45442;-57
2023/05/02 06:28:26;;;;;;;;;26.67;25.33;;;;;13.74;66.62;101574.63;4951641;28;45392;-57
2023/05/02 06:31:02;;;;;;;;;27.33;24.00;;;;;13.73;66.78;101573.78;4955700;28;45410;-56
2023/05/02 06:33:28;;;;;;;;;27.67;24.33;;;;;13.76;66.36;101573.66;4955587;28;45433;-57
2023/05/02 06:35:54;;;;;;;;;25.00;24.33;;;;;13.76;66.74;101578.94;4956029;28;45471;-57
2023/05/02 06:38:20;;;;;;;;;34.33;31.00;;;;;13.79;66.39;101583.28;4955726;28;45495;-56
2023/05/02 06:40:46;;;;;;;;;28.33;26.00;;;;;13.75;66.81;101569.28;4954381;28;46266;-57
2023/05/02 06:43:11;;;;;;;;;33.00;28.33;;;;;13.82;66.50;101584.03;4955775;28;45806;-57
2023/05/02 06:45:38;;;;;;;;;29.33;28.00;;;;;13.81;66.21;101582.31;4957324;28;45478;-57
2023/05/02 06:48:03;;;;;;;;;29.00;28.33;;;;;13.85;66.65;101591.00;4957623;28;45605;-56
2023/05/02 06:50:28;;;;;;;;;29.67;27.67;;;;;13.88;66.53;101596.19;4953835;28;46098;-56
2023/05/02 06:52:54;;;;;;;;;29.67;29.67;;;;;13.93;66.37;101599.53;4958043;28;45419;-56
2023/05/02 06:55:20;;;;;;;;;31.67;30.33;;;;;13.93;66.30;101587.19;4956983;28;45514;-56
2023/05/02 06:57:45;;;;;;;;;30.67;29.00;;;;;13.98;66.18;101594.97;4959055;28;45603;-56
2023/05/02 07:00:12;;;;;;;;;32.33;31.33;;;;;13.99;66.46;101588.75;4958389;28;45470;-57
2023/05/02 07:02:37;;;;;;;;;30.33;29.00;;;;;14.03;65.91;101586.88;4958843;28;45523;-57
2023/05/02 07:05:03;;;;;;;;;33.67;31.33;;;;;14.06;66.14;101592.06;4948740;28;45424;-56
2023/05/02 07:07:29;;;;;;;;;32.67;29.00;;;;;14.08;65.68;101590.25;4957883;28;45420;-55
2023/05/02 07:09:55;;;;;;;;;31.33;30.00;;;;;14.11;65.39;101600.72;4957498;28;45495;-54
2023/05/02 07:12:20;;;;;;;;;32.00;27.67;;;;;14.13;65.98;101593.56;4957578;28;45447;-53
2023/05/02 07:14:46;;;;;;;;;35.00;31.00;;;;;14.17;65.24;101599.63;4957937;28;45665;-55
2023/05/02 07:17:11;;;;;;;;;35.33;33.00;;;;;14.19;65.53;101592.50;4946129;28;45432;-55
2023/05/02 07:19:36;;;;;;;;;38.67;32.67;;;;;14.21;65.82;101598.59;4958806;28;45570;-52
2023/05/02 07:22:02;;;;;;;;;37.33;32.00;;;;;14.25;65.16;101592.28;4958613;28;45479;-57
2023/05/02 07:24:27;;;;;;;;;36.33;31.67;;;;;14.28;65.62;101586.91;4958937;28;45606;-57
2023/05/02 07:26:53;;;;;;;;;34.33;32.33;;;;;14.29;65.75;101578.03;4958834;28;45558;-55
2023/05/02 07:29:18;;;;;;;;;35.67;33.00;;;;;14.31;65.06;101578.84;4955093;28;48132;-54
2023/05/02 07:31:44;;;;;;;;;36.33;33.00;;;;;14.35;64.75;101588.41;4958068;28;45406;-57
2023/05/02 07:34:09;;;;;;;;;31.67;28.67;;;;;14.38;64.75;101582.16;4957398;28;45503;-57
2023/05/02 07:36:34;;;;;;;;;36.67;33.00;;;;;14.41;64.84;101592.63;4958580;28;45382;-55
2023/05/02 07:39:00;;;;;;;;;36.33;33.33;;;;;14.45;64.75;101594.22;4956314;28;45568;-55
2023/05/02 07:41:25;;;;;;;;;34.33;32.33;;;;;14.45;64.39;101599.53;4958768;28;45853;-54
2023/05/02 07:43:50;;;;;;;;;33.33;30.67;;;;;14.47;64.59;101605.63;4958897;28;45521;-56
2023/05/02 07:46:16;;;;;;;;;31.33;31.00;;;;;14.45;64.40;101599.53;4957901;28;55261;-54
2023/05/02 07:48:41;;;;;;;;;30.00;27.67;;;;;14.48;64.43;101600.31;4958297;28;45789;-57
2023/05/02 07:51:09;;;;;;;;;46.67;34.67;;;;;14.52;64.26;101603.69;4958008;28;45473;-57
2023/05/02 07:53:34;;;;;;;;;32.67;31.67;;;;;14.55;64.22;101611.56;4956833;28;45378;-55
2023/05/02 07:56:00;;;;;;;;;34.33;30.67;;;;;14.57;64.65;101604.44;4956363;28;45570;-54
2023/05/02 07:58:26;;;;;;;;;28.00;28.00;;;;;14.63;64.63;101614.78;4957818;28;46246;-54
2023/05/02 08:00:51;;;;;;;;;30.67;29.00;;;;;14.55;63.73;101587.72;4958140;28;45597;-55
2023/05/02 08:03:16;;;;;;;;;32.00;30.00;;;;;14.71;63.32;101612.72;4954685;28;45506;-58
2023/05/02 08:05:42;;;;;;;;;30.00;27.00;;;;;14.72;63.43;101609.19;4954443;28;55320;-58
2023/05/02 08:08:07;;;;;;;;;27.33;26.33;;;;;14.74;63.05;101607.31;4945761;28;55114;-57
2023/05/02 08:10:32;;;;;;;;;31.33;27.00;;;;;14.74;63.08;101617.91;4949746;28;45439;-61
2023/05/02 08:12:58;;;;;;;;;31.67;29.00;;;;;14.80;62.67;101617.72;4955793;28;45857;-57
2023/05/02 08:15:23;;;;;;;;;29.67;27.67;;;;;14.80;62.30;101623.00;4956313;28;45458;-53
2023/05/02 08:17:48;;;;;;;;;33.00;29.33;;;;;14.84;62.49;101623.75;4957763;28;46174;-57
2023/05/02 08:20:14;;;;;;;;;23.67;23.67;;;;;14.88;62.28;101619.19;4955737;28;45604;-55
2023/05/02 08:22:40;;;;;;;;;28.33;27.00;;;;;14.92;61.76;101626.13;4956266;28;45536;-54
2023/05/02 08:25:06;;;;;;;;;28.00;24.33;;;;;14.93;62.54;101631.34;4950006;28;45415;-56
2023/05/02 08:27:31;;;;;;;;;34.00;30.00;;;;;14.96;62.14;101627.72;4957767;28;45426;-55
2023/05/02 08:29:57;;;;;;;;;26.00;24.00;;;;;15.01;61.76;101629.25;4955557;28;45513;-55
2023/05/02 08:32:50;;;;;;;;;25.33;24.33;;;;;15.02;61.60;101632.81;4957511;28;45529;-58
2023/05/02 08:35:15;;;;;;;;;24.00;21.33;;;;;15.01;61.65;101631.91;4956159;28;45517;-56
2023/05/02 08:37:41;;;;;;;;;27.33;25.00;;;;;15.09;61.91;101631.63;4956728;28;46234;-56
2023/05/02 08:40:10;;;;;;;;;25.67;24.00;;;;;15.12;62.23;101630.66;4956118;28;45403;-56
2023/05/02 08:42:36;;;;;;;;;24.33;23.33;;;;;15.16;62.26;101633.13;4957497;28;45451;-56
2023/05/02 08:45:02;;;;;;;;;21.00;20.67;;;;;15.20;62.19;101636.53;4957402;28;45597;-54
2023/05/02 08:47:30;;;;;;;;;23.00;18.67;;;;;15.20;61.90;101642.69;4954519;28;45462;-56
2023/05/02 08:49:58;;;;;;;;;26.67;22.00;;;;;15.21;61.47;101649.72;4956986;28;45435;-56
2023/05/02 08:52:25;;;;;;;;;22.67;21.00;;;;;15.21;61.96;101646.22;4957968;28;45403;-56
2023/05/02 08:54:51;;;;;;;;;17.33;16.00;;;;;15.19;61.60;101642.75;4955077;28;45571;-56
2023/05/02 08:57:16;;;;;;;;;26.67;23.67;;;;;15.25;61.57;101651.31;4957169;28;45998;-56
2023/05/02 08:59:42;;;;;;;;;24.00;22.67;;;;;15.27;61.83;101648.63;4957169;28;45522;-56
2023/05/02 09:02:26;;;;;;;;;24.67;22.33;;;;;15.27;61.56;101653.06;4955470;28;45531;-56
2023/05/02 09:04:54;;;;;;;;;21.67;21.67;;;;;15.27;61.78;101653.06;4957081;28;45427;-56
2023/05/02 09:07:20;;;;;;;;;21.33;21.33;;;;;15.29;61.53;101643.28;4953901;28;45581;-56
2023/05/02 09:09:46;;;;;;;;;21.67;21.00;;;;;15.32;61.35;101646.66;4956003;28;45297;-56
2023/05/02 09:12:11;;;;;;;;;19.67;18.33;;;;;15.38;60.74;101650.88;4957408;28;45874;-56
2023/05/02 09:14:37;;;;;;;;;20.33;20.33;;;;;15.40;60.62;101649.03;4944670;28;45581;-57
2023/05/02 09:17:02;;;;;;;;;19.33;19.33;;;;;15.43;60.91;101651.56;4956468;28;45355;-56
2023/05/02 09:19:27;;;;;;;;;21.00;20.33;;;;;15.45;60.28;101660.31;4953011;28;45367;-56
2023/05/02 09:22:00;;;;;;;;;19.67;19.67;;;;;15.47;60.77;101663.75;4956108;28;45465;-55
2023/05/02 09:24:25;;;;;;;;;26.00;23.00;;;;;15.50;61.20;101666.31;4947617;28;45596;-56
2023/05/02 09:27:04;;;;;;;;;27.67;26.67;;;;;15.49;61.43;101675.19;4953183;28;45578;-55
2023/05/02 09:29:36;;;;;;;;;36.00;33.00;;;;;15.51;61.82;101678.63;4956048;28;45359;-56
2023/05/02 09:32:03;;;;;;;;;36.67;33.00;;;;;15.50;61.52;101676.94;4957025;28;45416;-56
2023/05/02 09:34:29;;;;;;;;;36.67;33.67;;;;;15.52;61.09;101677.69;4948058;28;45558;-54
2023/05/02 09:36:55;;;;;;;;;38.00;33.00;;;;;15.54;62.30;101683.81;4955398;28;46200;-55
2023/05/02 09:39:25;;;;;;;;;36.00;34.00;;;;;15.57;61.22;101689.00;4954037;28;45433;-57
2023/05/02 09:41:51;;;;;;;;;36.67;33.33;;;;;15.61;61.48;101692.41;4945390;28;45474;-54
2023/05/02 09:44:18;;;;;;;;;43.00;35.00;;;;;15.62;61.57;101694.13;4952510;28;45478;-57
2023/05/02 09:46:52;;;;;;;;;38.33;33.33;;;;;15.59;61.12;101692.47;4955396;28;46260;-53
2023/05/02 09:49:18;;;;;;;;;40.00;35.33;;;;;15.64;61.17;101698.47;4953024;28;45473;-58
2023/05/02 09:51:48;;;;;;;;;40.00;35.00;;;;;15.59;61.43;101695.13;4956222;28;45341;-67
2023/05/02 09:54:32;;;;;;;;;34.67;33.00;;;;;15.64;61.96;101695.81;4953826;28;47228;-56
2023/05/02 09:56:57;;;;;;;;;42.33;36.00;;;;;15.64;61.81;101698.47;4954175;28;45569;-56
2023/05/02 09:59:23;;;;;;;;;38.67;33.33;;;;;15.66;60.92;101698.38;4956183;28;50694;-58
2023/05/02 10:02:00;;;;;;;;;30.67;30.33;;;;;15.67;61.65;101708.94;4955097;28;45398;-58
2023/05/02 10:04:26;;;;;;;;;30.67;29.00;;;;;15.65;61.30;101705.47;4956528;28;45550;-58
2023/05/02 10:06:52;;;;;;;;;31.33;29.33;;;;;15.62;60.77;101702.09;4954857;28;46660;-58
2023/05/02 10:09:21;;;;;;;;;33.00;29.33;;;;;15.62;61.05;101697.66;4954992;28;45449;-57
2023/05/02 10:11:52;;;;;;;;;26.00;26.00;;;;;15.66;61.00;101695.72;4956222;28;45554;-57
2023/05/02 10:14:20;;;;;;;;;34.00;30.00;;;;;15.68;60.72;101693.88;4952906;28;45611;-59
2023/05/02 10:17:11;;;;;;;;;32.67;30.67;;;;;15.71;60.83;101690.28;4951837;28;45309;-59
2023/05/02 10:19:38;;;;;;;;;25.67;23.00;;;;;15.75;60.83;101697.22;4955779;28;45509;-64
2023/05/02 10:22:04;;;;;;;;;28.67;27.67;;;;;15.75;61.58;101698.06;4955740;28;45418;-63
2023/05/02 10:24:32;;;;;;;;;26.33;23.67;;;;;15.77;61.05;101690.03;4955937;28;45391;-62
2023/05/02 10:26:58;;;;;;;;;20.67;18.00;;;;;15.81;60.62;101704.91;4955729;28;46497;-62
2023/05/02 10:29:28;;;;;;;;;18.33;17.67;;;;;15.79;60.59;101696.16;4955766;28;45510;-62
2023/05/02 10:31:55;;;;;;;;;20.67;19.00;;;;;15.71;59.97;101682.31;4955051;28;45363;-65
2023/05/02 10:34:21;;;;;;;;;19.00;18.00;;;;;15.79;60.52;101698.81;4955672;28;45384;-63
2023/05/02 10:36:46;;;;;;;;;18.00;16.00;;;;;15.81;60.29;101699.63;4955512;28;46451;-66
2023/05/02 10:39:12;;;;;;;;;19.67;19.33;;;;;15.83;59.85;101692.47;4955849;28;45603;-66
2023/05/02 10:41:39;;;;;;;;;19.00;18.00;;;;;15.87;60.31;101700.22;4955685;28;45521;-67
2023/05/02 10:44:07;;;;;;;;;20.67;18.67;;;;;15.87;59.84;101699.34;4954704;28;45610;-66
2023/05/02 10:46:33;;;;;;;;;18.00;18.00;;;;;15.91;60.92;101700.97;4953276;28;47864;-68
2023/05/02 10:49:00;;;;;;;;;18.00;18.00;;;;;15.90;60.47;101696.56;4954268;28;45622;-59
2023/05/02 10:51:28;;;;;;;;;21.00;19.33;;;;;15.86;60.05;101689.69;4955743;28;45540;-59
2023/05/02 10:53:56;;;;;;;;;12.33;12.33;;;;;15.88;59.52;101703.75;4953747;28;45491;-58
2023/05/02 10:56:21;;;;;;;;;18.33;17.67;;;;;15.89;60.58;101689.56;4946402;28;45418;-61
2023/05/02 10:58:49;;;;;;;;;16.33;16.00;;;;;15.96;58.80;101701.66;4953979;28;45602;-65
2023/05/02 11:01:23;;;;;;;;;18.67;18.67;;;;;15.99;59.81;101696.22;4953301;28;45466;-63
2023/05/02 11:04:00;;;;;;;;;16.00;14.33;;;;;16.05;59.63;101698.63;4944640;28;45407;-55
2023/05/02 11:06:27;;;;;;;;;18.33;18.00;;;;;16.06;59.52;101692.38;4952854;28;45561;-54
2023/05/02 11:09:13;;;;;;;;;17.00;16.33;;;;;16.13;58.17;101698.31;4954182;28;45441;-58
2023/05/02 11:11:47;;;;;;;;;17.67;17.33;;;;;16.13;58.71;101695.66;4953474;28;45473;-58